No particular awareness of the weather is required.    There are no Weather-warnings


Meteo18 Weather Cam more information Meteo18 Weather Cam


Thunder radar more information blitzortung!


Rain radar more information rain snow radar


Visit our other weather sites:

Template documentation
and downloads

And another site



Weather Underground History page Text

Daily Summary for November 22, 2017 Units:  Metric    English   Both
« Previous Day
Next Day »
Daily Weekly Monthly Yearly Custom
  High: Low: Average:
Temperature: -17.8 °C -16.9 °C -13.2 °C
Dew Point: -17.8 °C -17 °C -14.8 °C
Humidity: Humidity % 62 % 82 %
Wind Speed: 0 km/h 0 km/h 2.6 km/h
Wind Gust: 0 km/h - -
Wind:- - SSW
Pressure: 0 hPa 34130.9 hPa -
Precipitation: 0 mm    
Historical Graphs
 
 
Tabular Data for November 22, 2017
Time Temperature Dew Point Pressure Wind Wind Speed Wind Gust Humidity Rainfall Rate (Hourly)
-17.8 °C -17.8 °C 0 hPa Calm     Humidity % 0 mm
00:02 -15.6 °C -15.8 °C 34442.4 hPa Calm   2.6 km/h 97 % 0 mm
00:07 -15.6 °C -15.8 °C 34442.4 hPa Calm   2.6 km/h 97 % 0 mm
00:12 -15.7 °C -15.9 °C 34442.4 hPa Calm   2.6 km/h 97 % 0 mm
00:22 -15.8 °C -16 °C 34442.4 hPa SSW 2.6 km/h 2.6 km/h 97 % 0 mm
00:32 -15.9 °C -16.1 °C 34442.4 hPa Calm   5.1 km/h 97 % 0 mm
00:47 -15.8 °C -16 °C 34442.4 hPa Calm   2.6 km/h 97 % 0 mm
01:02 -15.8 °C -16.1 °C 34442.4 hPa Calm   2.6 km/h 97 % 0 mm
01:12 -15.9 °C -16.1 °C 34428.8 hPa Calm   2.6 km/h 97 % 0 mm
01:22 -15.8 °C -16.1 °C 34428.8 hPa SW 2.6 km/h 2.6 km/h 97 % 0 mm
01:32 -15.6 °C -15.8 °C 34428.8 hPa Calm   5.1 km/h 97 % 0 mm
01:42 -15.6 °C -15.8 °C 34428.8 hPa Calm   5.1 km/h 97 % 0 mm
01:47 -15.7 °C -15.9 °C 34428.8 hPa Calm   5.1 km/h 97 % 0 mm
02:02 -16.2 °C -16.6 °C 34418.7 hPa Calm   2.6 km/h 96 % 0 mm
02:12 -16.3 °C -16.6 °C 34418.7 hPa Calm   2.6 km/h 97 % 0 mm
02:17 -16.4 °C -16.7 °C 34418.7 hPa Calm     97 % 0 mm
02:32 -16.6 °C -16.8 °C 34418.7 hPa Calm     97 % 0 mm
02:37 -16.6 °C -16.8 °C 34418.7 hPa Calm     97 % 0 mm
02:42 -16.6 °C -16.8 °C 34418.7 hPa Calm     97 % 0 mm
02:47 -16.6 °C -16.8 °C 34418.7 hPa Calm     97 % 0 mm
02:52 -16.6 °C -16.8 °C 34418.7 hPa Calm     97 % 0 mm
02:57 -16.6 °C -16.8 °C 34418.7 hPa Calm     97 % 0 mm
03:22 -16.9 °C -16.9 °C 34405.1 hPa Calm     100 % 0 mm
03:27 -16.9 °C -16.9 °C 34405.1 hPa Calm     100 % 0 mm
08:47 -16.8 °C -17 °C 34347.6 hPa WNW 2.6 km/h -2586.8 km/h 98 % 0 mm
09:02 -16.7 °C -16.9 °C 34347.6 hPa Calm   5.1 km/h 98 % 0 mm
09:12 -16.7 °C -16.9 °C 34347.6 hPa Calm   2.6 km/h 97 % 0 mm
09:17 -16.6 °C -16.8 °C 34347.6 hPa Calm   2.6 km/h 97 % 0 mm
09:27 -16.3 °C -16.6 °C 34347.6 hPa Calm     97 % 0 mm
09:47 -16 °C -16.2 °C 34337.4 hPa Calm   5.1 km/h 97 % 0 mm
10:02 -15.7 °C -15.9 °C 34337.4 hPa SW 2.6 km/h 7.7 km/h 97 % 0 mm
10:17 -15.3 °C -15.6 °C 34327.3 hPa Calm   5.1 km/h 97 % 0 mm
10:22 -14.8 °C -15 °C 34327.3 hPa Calm   2.6 km/h 98 % 0 mm
10:32 -14.6 °C -14.8 °C 34327.3 hPa Calm     98 % 0 mm
10:37 -14.8 °C -15.1 °C 34327.3 hPa Calm     97 % 0 mm
10:47 -14.8 °C -15 °C 34327.3 hPa Calm     97 % 0 mm
10:57 -14.6 °C -14.8 °C 34327.3 hPa Calm     97 % 0 mm
11:02 -14.4 °C -14.6 °C 34327.3 hPa SW 2.6 km/h   97 % 0 mm
11:17 -14.3 °C -14.7 °C 34313.7 hPa SW 2.6 km/h 5.1 km/h 95 % 0 mm
11:32 -13.7 °C -14.2 °C 34303.6 hPa Calm   5.1 km/h 94 % 0 mm
11:37 -13.6 °C -14.3 °C 34303.6 hPa SW 2.6 km/h 5.1 km/h 92 % 0 mm
11:42 -13.5 °C -14.3 °C 34303.6 hPa Calm   2.6 km/h 91 % 0 mm
11:47 -13.3 °C -14.3 °C 34303.6 hPa Calm   5.1 km/h 89 % 0 mm
11:52 -13.2 °C -14.1 °C 34293.4 hPa South 2.6 km/h 5.1 km/h 89 % 0 mm
12:02 -12.8 °C -13.9 °C 34293.4 hPa Calm   5.1 km/h 87 % 0 mm
12:12 -12.4 °C -13.8 °C 34293.4 hPa Calm   5.1 km/h 85 % 0 mm
12:17 -12.3 °C -13.9 °C 34279.9 hPa SSE 2.6 km/h 5.1 km/h 82 % 0 mm
12:22 -12.3 °C -13.8 °C 34279.9 hPa Calm   5.1 km/h 83 % 0 mm
12:27 -12.1 °C -13.8 °C 34269.7 hPa SSE 2.6 km/h 5.1 km/h 81 % 0 mm
12:32 -11.9 °C -13.8 °C 34269.7 hPa Calm   5.1 km/h 79 % 0 mm
12:42 -11.7 °C -13.6 °C 34269.7 hPa SE 2.6 km/h 7.7 km/h 79 % 0 mm
12:52 -11.6 °C -13.7 °C 34256.2 hPa Calm   5.1 km/h 77 % 0 mm
13:02 -11.3 °C -13.4 °C 34256.2 hPa Calm   5.1 km/h 77 % 0 mm
13:12 -11.2 °C -13.4 °C 34246 hPa Calm   5.1 km/h 77 % 0 mm
13:17 -11.1 °C -13.3 °C 34246 hPa SW 2.6 km/h 7.7 km/h 76 % 0 mm
13:22 -10.9 °C -13.4 °C 34246 hPa SW 2.6 km/h 7.7 km/h 74 % 0 mm
13:37 -10.5 °C -13 °C 34235.8 hPa SSW 2.6 km/h 10.3 km/h 74 % 0 mm
13:42 -10.4 °C -13.1 °C 34235.8 hPa SSW 5.1 km/h 10.3 km/h 72 % 0 mm
14:02 -9.9 °C -13.2 °C 34222.3 hPa South 5.1 km/h 12.9 km/h 68 % 0 mm
14:52 -9.3 °C -13.1 °C 34198.6 hPa SE 5.1 km/h 12.9 km/h 64 % 0 mm
15:02 -9.3 °C -13.2 °C 34198.6 hPa SE 7.7 km/h 15.6 km/h 63 % 0 mm
15:12 -9.4 °C -13.3 °C 34198.6 hPa ESE 5.1 km/h 10.3 km/h 63 % 0 mm
15:32 -9.2 °C -13.1 °C 34188.4 hPa SE 2.6 km/h 10.3 km/h 63 % 0 mm
15:37 -9.2 °C -13 °C 34188.4 hPa SE 2.6 km/h 10.3 km/h 64 % 0 mm
15:42 -9.3 °C -13.2 °C 34188.4 hPa Calm   7.7 km/h 63 % 0 mm
15:52 -9.4 °C -13.4 °C 34178.3 hPa ESE 7.7 km/h 7.7 km/h 62 % 0 mm
15:57 -9.4 °C -13.1 °C 34178.3 hPa SE 2.6 km/h 10.3 km/h 65 % 0 mm
16:02 -9.5 °C -13.4 °C 34178.3 hPa Calm   10.3 km/h 63 % 0 mm
16:17 -9.3 °C -12.9 °C 34178.3 hPa SSW 2.6 km/h 5.1 km/h 65 % 0 mm
16:22 -9.5 °C -13.1 °C 34178.3 hPa SW 5.1 km/h 7.7 km/h 65 % 0 mm
16:32 -9.8 °C -13.3 °C 34178.3 hPa SSW 2.6 km/h 7.7 km/h 66 % 0 mm
16:52 -10.2 °C -13.3 °C 34178.3 hPa SW 5.1 km/h 10.3 km/h 69 % 0 mm
16:57 -10.4 °C -13.4 °C 34178.3 hPa SW 10.3 km/h 12.9 km/h 70 % 0 mm
17:02 -10.6 °C -13.4 °C 34178.3 hPa SSW 5.1 km/h 12.9 km/h 71 % 0 mm
17:12 -10.8 °C -13.4 °C 34164.7 hPa SSW 5.1 km/h 12.9 km/h 73 % 0 mm
17:17 -10.9 °C -13.4 °C 34164.7 hPa South 2.6 km/h 12.9 km/h 74 % 0 mm
17:22 -11.1 °C -13.4 °C 34164.7 hPa SW 2.6 km/h 10.3 km/h 75 % 0 mm
17:32 -11.2 °C -13.4 °C 34164.7 hPa Calm   7.7 km/h 76 % 0 mm
17:37 -11.2 °C -13.6 °C 34164.7 hPa Calm   5.1 km/h 75 % 0 mm
17:42 -11.3 °C -13.6 °C 34164.7 hPa SW 2.6 km/h 5.1 km/h 76 % 0 mm
17:47 -11.4 °C -13.7 °C 34164.7 hPa SSW 5.1 km/h 5.1 km/h 76 % 0 mm
18:02 -11.6 °C -13.8 °C 34164.7 hPa SSW 2.6 km/h 7.7 km/h 76 % 0 mm
18:12 -11.8 °C -13.9 °C 34164.7 hPa SSW 2.6 km/h 7.7 km/h 77 % 0 mm
18:22 -11.9 °C -14 °C 34164.7 hPa SW 2.6 km/h 7.7 km/h 78 % 0 mm
18:27 -12.1 °C -14.1 °C 34164.7 hPa SW 2.6 km/h 7.7 km/h 78 % 0 mm
18:32 -12.1 °C -14.2 °C 34164.7 hPa WSW 2.6 km/h 7.7 km/h 78 % 0 mm
18:37 -12.1 °C -14.1 °C 34164.7 hPa SSW 2.6 km/h 7.7 km/h 79 % 0 mm
18:52 -12.3 °C -14.2 °C 34154.6 hPa SSW 2.6 km/h 7.7 km/h 80 % 0 mm
19:02 -12.3 °C -14.2 °C 34154.6 hPa SSW 5.1 km/h 10.3 km/h 80 % 0 mm
19:12 -12.4 °C -14.3 °C 34144.4 hPa SSW 10.3 km/h 12.9 km/h 79 % 0 mm
19:22 -12.7 °C -14.4 °C 34154.6 hPa SSW 10.3 km/h 12.9 km/h 81 % 0 mm
19:32 -12.6 °C -14.4 °C 34154.6 hPa SSW 10.3 km/h 12.9 km/h 80 % 0 mm
19:37 -12.5 °C -14.4 °C 34154.6 hPa SSW 5.1 km/h 12.9 km/h 79 % 0 mm
19:47 -12.4 °C -14.4 °C 34154.6 hPa SSW 7.7 km/h 15.6 km/h 79 % 0 mm
20:02 -12.6 °C -14.6 °C 34154.6 hPa SSW 5.1 km/h 10.3 km/h 79 % 0 mm
20:17 -12.8 °C -14.8 °C 34144.4 hPa SSW 5.1 km/h 10.3 km/h 78 % 0 mm
20:32 -12.7 °C -14.8 °C 34144.4 hPa SSW 2.6 km/h 10.3 km/h 77 % 0 mm
20:42 -12.8 °C -14.9 °C 34144.4 hPa SW 5.1 km/h 10.3 km/h 77 % 0 mm
20:47 -12.9 °C -15.1 °C 34144.4 hPa SSW 7.7 km/h 10.3 km/h 77 % 0 mm
20:52 -13 °C -15 °C 34144.4 hPa SSW 7.7 km/h 10.3 km/h 78 % 0 mm
21:12 -13.4 °C -15.4 °C 34144.4 hPa South 7.7 km/h 15.6 km/h 78 % 0 mm
21:17 -13.7 °C -15.6 °C 34144.4 hPa SSW 7.7 km/h 15.6 km/h 79 % 0 mm
21:22 -13.6 °C -15.4 °C 34144.4 hPa SW 5.1 km/h 12.9 km/h 80 % 0 mm
21:32 -13.4 °C -15.5 °C 34144.4 hPa South 5.1 km/h 15.6 km/h 77 % 0 mm
21:42 -13.4 °C -15.6 °C 34144.4 hPa SW 5.1 km/h 12.9 km/h 77 % 0 mm
21:47 -13.4 °C -15.6 °C 34144.4 hPa SSE 5.1 km/h 10.3 km/h 77 % 0 mm
21:57 -13.4 °C -15.5 °C 34144.4 hPa SSE 7.7 km/h 10.3 km/h 77 % 0 mm
22:02 -13.4 °C -15.5 °C 34144.4 hPa South 2.6 km/h 10.3 km/h 77 % 0 mm
22:12 -13.3 °C -15.4 °C 34130.9 hPa SE 2.6 km/h 7.7 km/h 77 % 0 mm
22:17 -13.3 °C -15.3 °C 34144.4 hPa Calm   10.3 km/h 78 % 0 mm
22:22 -13.4 °C -15.4 °C 34144.4 hPa SSW 2.6 km/h 10.3 km/h 78 % 0 mm
22:32 -13.4 °C -15.3 °C 34144.4 hPa SSW 2.6 km/h 5.1 km/h 79 % 0 mm
22:42 -13.4 °C -15.3 °C 34130.9 hPa SW 5.1 km/h 5.1 km/h 79 % 0 mm
22:47 -13.5 °C -15.4 °C 34130.9 hPa Calm   7.7 km/h 79 % 0 mm
22:52 -13.5 °C -15.3 °C 34130.9 hPa SE 7.7 km/h 7.7 km/h 80 % 0 mm
22:57 -13.4 °C -15.2 °C 34130.9 hPa SSE 2.6 km/h 7.7 km/h 80 % 0 mm
23:02 -13.5 °C -15.4 °C 34130.9 hPa SSW 5.1 km/h 7.7 km/h 79 % 0 mm
23:12 -13.5 °C -15.2 °C 34130.9 hPa SSE 2.6 km/h 7.7 km/h 81 % 0 mm
23:17 -13.4 °C -15.2 °C 34130.9 hPa South 2.6 km/h 5.1 km/h 81 % 0 mm
23:27 -13.6 °C -15.3 °C 34130.9 hPa South 2.6 km/h 5.1 km/h 81 % 0 mm
23:32 -13.5 °C -15.1 °C 34130.9 hPa South 2.6 km/h 5.1 km/h 82 % 0 mm
23:42 -13.5 °C -15.1 °C 34130.9 hPa South 2.6 km/h 5.1 km/h 82 % 0 mm
23:47 -13.5 °C -15 °C 34130.9 hPa Calm   5.1 km/h 83 % 0 mm
23:52 -13.4 °C -15.1 °C 34130.9 hPa South 2.6 km/h 5.1 km/h 82 % 0 mm
Meteo18
Compliments of Weather Underground - 4 mb

Script developed by  Jim McMurry - jmcmurry@mwt.net Adapted for the template by  Wim van der Kuil - Leuven-Template.eu

You find our weather info also at:

European Weather Network

Weather Underground

Equipment we use:

Weather-station
Davis Vue

Weather-program
Meteobridge

Weather-server
Raspberry PI 2 B+

Provider
1 and 1

Davis Vue

Meteobridge

Raspberry PI 2 B+

1 and 1